Time;durP1;ratioP1;P1;durP2;ratioP2;P2;SDS_P1;SDS_P2;PMS_P1;PMS_P2;Temp;Humidity;BMP_temperature;BMP_pressure;BME280_temperature;BME280_humidity;BME280_pressure;Samples;Min_cycle;Max_cycle;Signal;HPM_P1;HPM_P2
2024/04/08 00:01:21;;;;;;;0.68;0.40;;;;;;;;;;5459221;26;20007;-77
2024/04/08 00:03:47;;;;;;;0.38;0.30;;;;;;;;;;5463022;26;20016;-77
2024/04/08 00:06:13;;;;;;;1.27;0.45;;;;;;;;;;5459336;26;20003;-77
2024/04/08 00:08:39;;;;;;;2.35;0.70;;;;;;;;;;5469121;26;20022;-78
2024/04/08 00:11:07;;;;;;;0.40;0.40;;;;;;;;;;5464871;26;20006;-77
2024/04/08 00:13:37;;;;;;;0.40;0.40;;;;;;;;;;5452127;26;20000;-77
2024/04/08 00:16:04;;;;;;;0.60;0.60;;;;;;;;;;5463773;26;19995;-77
2024/04/08 00:18:30;;;;;;;1.55;0.40;;;;;;;;;;5458176;26;20010;-77
2024/04/08 00:21:00;;;;;;;1.15;0.65;;;;;;;;;;5459319;26;19999;-78
2024/04/08 00:23:26;;;;;;;0.43;0.43;;;;;;;;;;5443882;26;20511;-78
2024/04/08 00:25:53;;;;;;;0.80;0.57;;;;;;;;;;5445638;26;20349;-77
2024/04/08 00:28:19;;;;;;;0.52;0.52;;;;;;;;;;5436560;26;20110;-78
2024/04/08 00:30:45;;;;;;;0.50;0.40;;;;;;;;;;5438686;26;20101;-77
2024/04/08 00:33:11;;;;;;;0.57;0.57;;;;;;;;;;5435753;26;20003;-79
2024/04/08 00:35:38;;;;;;;0.30;0.30;;;;;;;;;;5435808;26;20010;-78
2024/04/08 00:38:04;;;;;;;0.63;0.50;;;;;;;;;;5439403;26;20023;-79
2024/04/08 00:40:39;;;;;;;0.40;0.40;;;;;;;;;;5440400;26;20007;-78
2024/04/08 00:43:07;;;;;;;0.40;0.32;;;;;;;;;;5435368;26;20013;-79
2024/04/08 00:45:33;;;;;;;0.45;0.45;;;;;;;;;;5440681;26;20052;-78
2024/04/08 00:48:00;;;;;;;0.45;0.45;;;;;;;;;;5435605;26;20000;-78
2024/04/08 00:50:26;;;;;;;0.82;0.47;;;;;;;;;;5442253;26;20003;-77
2024/04/08 00:52:54;;;;;;;1.20;0.50;;;;;;;;;;5438914;26;20049;-76
2024/04/08 00:55:21;;;;;;;0.40;0.40;;;;;;;;;;5438837;26;20446;-78
2024/04/08 00:57:47;;;;;;;1.30;0.40;;;;;;;;;;5428953;26;20109;-79
2024/04/08 01:00:14;;;;;;;1.50;0.90;;;;;;;;;;5442710;26;20208;-79
2024/04/08 01:02:40;;;;;;;0.98;0.65;;;;;;;;;;5423343;26;20015;-78
2024/04/08 01:05:13;;;;;;;0.80;0.52;;;;;;;;;;5439051;26;20014;-78
2024/04/08 01:07:39;;;;;;;0.75;0.50;;;;;;;;;;5437395;26;20011;-78
2024/04/08 01:10:05;;;;;;;0.40;0.40;;;;;;;;;;5440252;26;20014;-79
2024/04/08 01:12:32;;;;;;;1.67;1.35;;;;;;;;;;5440781;26;20438;-78
2024/04/08 01:14:58;;;;;;;0.75;0.40;;;;;;;;;;5441287;26;20003;-77
2024/04/08 01:17:25;;;;;;;1.20;0.60;;;;;;;;;;5445667;26;20010;-78
2024/04/08 01:19:51;;;;;;;0.80;0.70;;;;;;;;;;5445404;26;19984;-75
2024/04/08 01:22:17;;;;;;;1.20;0.52;;;;;;;;;;5423962;26;19998;-74
2024/04/08 01:24:43;;;;;;;0.98;0.45;;;;;;;;;;5412697;26;20035;-75
2024/04/08 01:27:09;;;;;;;0.40;0.40;;;;;;;;;;5439009;26;19996;-75
2024/04/08 01:29:35;;;;;;;0.65;0.40;;;;;;;;;;5424555;26;19996;-76
2024/04/08 01:32:02;;;;;;;0.93;0.70;;;;;;;;;;5438226;26;20007;-76
2024/04/08 01:34:29;;;;;;;0.43;0.40;;;;;;;;;;5413481;26;20001;-77
2024/04/08 01:36:55;;;;;;;0.40;0.40;;;;;;;;;;5409561;26;20023;-76
2024/04/08 01:39:21;;;;;;;0.40;0.40;;;;;;;;;;5422515;26;19999;-77
2024/04/08 01:41:47;;;;;;;0.45;0.45;;;;;;;;;;5398198;26;20071;-77
2024/04/08 01:44:14;;;;;;;0.65;0.47;;;;;;;;;;5395915;26;20019;-77
2024/04/08 01:46:40;;;;;;;0.47;0.40;;;;;;;;;;5392605;26;19996;-76
2024/04/08 01:49:06;;;;;;;1.02;0.55;;;;;;;;;;5386197;26;20430;-77
2024/04/08 01:51:32;;;;;;;0.40;0.40;;;;;;;;;;5399876;26;20008;-77
2024/04/08 01:53:58;;;;;;;0.40;0.40;;;;;;;;;;5397873;26;19999;-78
2024/04/08 01:56:24;;;;;;;0.60;0.60;;;;;;;;;;5407294;26;20008;-77
2024/04/08 01:58:51;;;;;;;0.40;0.40;;;;;;;;;;5399791;26;20000;-77
2024/04/08 02:01:17;;;;;;;0.90;0.40;;;;;;;;;;5406252;26;20010;-76
2024/04/08 02:03:43;;;;;;;0.25;0.25;;;;;;;;;;5408616;26;20007;-77
2024/04/08 02:06:09;;;;;;;0.30;0.30;;;;;;;;;;5403651;26;19999;-77
2024/04/08 02:08:35;;;;;;;0.73;0.40;;;;;;;;;;5387942;26;20000;-77
2024/04/08 02:11:02;;;;;;;0.50;0.43;;;;;;;;;;5391422;26;20112;-77
2024/04/08 02:13:28;;;;;;;0.45;0.30;;;;;;;;;;5395172;26;20141;-78
2024/04/08 02:15:54;;;;;;;0.30;0.30;;;;;;;;;;5410920;26;20058;-76
2024/04/08 02:18:20;;;;;;;0.47;0.40;;;;;;;;;;5384301;26;20029;-77
2024/04/08 02:20:46;;;;;;;0.90;0.52;;;;;;;;;;5412231;26;19996;-77
2024/04/08 02:23:12;;;;;;;1.50;1.40;;;;;;;;;;5404434;26;20000;-77
2024/04/08 02:25:45;;;;;;;0.30;0.30;;;;;;;;;;5398217;26;20012;-77
2024/04/08 02:28:11;;;;;;;0.57;0.40;;;;;;;;;;5415864;26;20011;-77
2024/04/08 02:30:38;;;;;;;0.35;0.35;;;;;;;;;;5392291;26;19996;-77
2024/04/08 02:33:05;;;;;;;0.65;0.40;;;;;;;;;;5414422;26;20011;-78
2024/04/08 02:35:35;;;;;;;1.85;0.50;;;;;;;;;;5419219;26;20130;-78
2024/04/08 02:38:04;;;;;;;0.40;0.40;;;;;;;;;;5392535;26;20004;-77
2024/04/08 02:40:32;;;;;;;2.53;0.68;;;;;;;;;;5423250;26;20077;-78
2024/04/08 02:42:58;;;;;;;1.08;0.30;;;;;;;;;;5398537;26;19996;-77
2024/04/08 02:45:24;;;;;;;0.52;0.32;;;;;;;;;;5386419;26;20116;-77
2024/04/08 02:47:50;;;;;;;0.40;0.28;;;;;;;;;;5389818;26;20024;-77
2024/04/08 02:50:16;;;;;;;0.40;0.40;;;;;;;;;;5396514;26;20000;-76
2024/04/08 02:52:42;;;;;;;0.52;0.52;;;;;;;;;;5422479;26;19999;-77
2024/04/08 02:55:09;;;;;;;1.13;0.60;;;;;;;;;;5434423;26;20392;-78
2024/04/08 02:57:35;;;;;;;1.40;0.40;;;;;;;;;;5438305;26;20003;-78
2024/04/08 03:00:01;;;;;;;0.30;0.30;;;;;;;;;;5418589;26;20018;-79
2024/04/08 03:02:27;;;;;;;0.32;0.30;;;;;;;;;;5439838;26;19995;-81
2024/04/08 03:04:53;;;;;;;0.20;0.20;;;;;;;;;;5448406;26;20041;-82
2024/04/08 03:07:19;;;;;;;0.30;0.30;;;;;;;;;;5445355;26;19995;-81
2024/04/08 03:09:50;;;;;;;0.38;0.30;;;;;;;;;;5446350;26;20018;-80
2024/04/08 03:12:16;;;;;;;0.65;0.30;;;;;;;;;;5445447;26;19999;-80
2024/04/08 03:14:42;;;;;;;0.40;0.30;;;;;;;;;;5444697;26;19992;-78
2024/04/08 03:17:08;;;;;;;0.20;0.20;;;;;;;;;;5451187;26;20063;-78
2024/04/08 03:19:34;;;;;;;0.25;0.25;;;;;;;;;;5442818;26;20095;-79
2024/04/08 03:22:01;;;;;;;0.10;0.10;;;;;;;;;;5435260;26;20002;-79
2024/04/08 03:24:30;;;;;;;0.57;0.40;;;;;;;;;;5452387;26;19999;-78
2024/04/08 03:26:56;;;;;;;0.28;0.25;;;;;;;;;;5439519;26;20011;-79
2024/04/08 03:29:23;;;;;;;0.20;0.20;;;;;;;;;;5430040;26;20012;-79
2024/04/08 03:31:49;;;;;;;0.22;0.20;;;;;;;;;;5411214;26;20038;-78
2024/04/08 03:34:15;;;;;;;0.35;0.30;;;;;;;;;;5429849;26;19996;-78
2024/04/08 03:36:41;;;;;;;0.20;0.20;;;;;;;;;;5422705;26;19993;-79
2024/04/08 03:39:08;;;;;;;0.20;0.20;;;;;;;;;;5393537;26;20008;-78
2024/04/08 03:41:34;;;;;;;0.17;0.17;;;;;;;;;;5409528;26;20008;-79
2024/04/08 03:44:00;;;;;;;0.25;0.20;;;;;;;;;;5418753;26;20000;-79
2024/04/08 03:46:26;;;;;;;0.30;0.30;;;;;;;;;;5394113;26;20332;-78
2024/04/08 03:48:52;;;;;;;0.30;0.30;;;;;;;;;;5392856;26;19992;-79
2024/04/08 03:51:19;;;;;;;0.20;0.20;;;;;;;;;;5397232;26;20043;-80
2024/04/08 03:53:46;;;;;;;0.22;0.22;;;;;;;;;;5392835;26;20148;-80
2024/04/08 03:56:12;;;;;;;0.30;0.30;;;;;;;;;;5407447;26;20083;-80
2024/04/08 03:58:39;;;;;;;0.20;0.20;;;;;;;;;;5411548;26;20000;-79
2024/04/08 04:01:06;;;;;;;0.20;0.20;;;;;;;;;;5413198;26;20007;-80
2024/04/08 04:03:32;;;;;;;0.70;0.70;;;;;;;;;;5420160;26;19999;-79
2024/04/08 04:05:58;;;;;;;0.17;0.17;;;;;;;;;;5460745;26;20042;-79
2024/04/08 04:08:24;;;;;;;0.10;0.10;;;;;;;;;;5402849;26;20000;-79
2024/04/08 04:10:50;;;;;;;0.63;0.35;;;;;;;;;;5398562;26;20004;-78
2024/04/08 04:13:16;;;;;;;0.28;0.28;;;;;;;;;;5402686;26;20004;-79
2024/04/08 04:15:42;;;;;;;0.65;0.20;;;;;;;;;;5411575;26;19996;-78
2024/04/08 04:18:09;;;;;;;0.57;0.30;;;;;;;;;;5421631;26;20003;-76
2024/04/08 04:20:39;;;;;;;0.20;0.20;;;;;;;;;;5413730;26;19996;-77
2024/04/08 04:23:22;;;;;;;1.73;0.30;;;;;;;;;;5416136;26;20011;-76
2024/04/08 04:25:52;;;;;;;0.30;0.25;;;;;;;;;;5395865;26;20015;-76
2024/04/08 04:28:18;;;;;;;0.73;0.30;;;;;;;;;;5404122;26;20004;-75
2024/04/08 04:30:52;;;;;;;4.18;1.10;;;;;;;;;;5388327;26;19992;-77
2024/04/08 04:33:18;;;;;;;6.68;2.05;;;;;;;;;;5398114;26;20008;-76
2024/04/08 04:35:51;;;;;;;10.07;2.20;;;;;;;;;;5403742;26;19997;-76
2024/04/08 04:38:18;;;;;;;13.20;3.28;;;;;;;;;;5386225;26;20370;-77
2024/04/08 04:40:44;;;;;;;10.77;2.78;;;;;;;;;;5397452;26;20001;-76
2024/04/08 04:43:10;;;;;;;15.45;3.25;;;;;;;;;;5412039;26;20018;-77
2024/04/08 04:45:36;;;;;;;13.32;2.70;;;;;;;;;;5385411;26;20011;-77
2024/04/08 04:48:02;;;;;;;9.40;2.47;;;;;;;;;;5393366;26;20000;-78
2024/04/08 04:50:30;;;;;;;9.18;2.20;;;;;;;;;;5395067;26;20000;-81
2024/04/08 04:52:57;;;;;;;8.15;2.35;;;;;;;;;;5410942;26;20054;-81
2024/04/08 04:55:24;;;;;;;12.23;2.72;;;;;;;;;;5406162;26;20000;-82
2024/04/08 04:57:50;;;;;;;8.68;2.45;;;;;;;;;;5405102;26;20011;-81
2024/04/08 05:00:16;;;;;;;6.03;2.55;;;;;;;;;;5412656;26;19996;-80
2024/04/08 05:02:43;;;;;;;2.78;1.60;;;;;;;;;;5403303;26;20040;-80
2024/04/08 05:05:09;;;;;;;3.08;1.65;;;;;;;;;;5395076;26;20001;-81
2024/04/08 05:07:36;;;;;;;4.22;2.10;;;;;;;;;;5403852;26;20004;-80
2024/04/08 05:10:02;;;;;;;3.03;1.35;;;;;;;;;;5400675;26;20008;-80
2024/04/08 05:12:28;;;;;;;2.17;1.00;;;;;;;;;;5387589;26;20000;-81
2024/04/08 05:14:54;;;;;;;1.55;1.10;;;;;;;;;;5402821;26;20015;-80
2024/04/08 05:17:20;;;;;;;1.67;1.30;;;;;;;;;;5421121;26;19992;-78
2024/04/08 05:19:47;;;;;;;0.85;0.85;;;;;;;;;;5438931;26;19998;-77
2024/04/08 05:22:17;;;;;;;1.02;0.70;;;;;;;;;;5412703;26;20042;-78
2024/04/08 05:24:44;;;;;;;1.33;0.80;;;;;;;;;;5410848;26;20097;-78
2024/04/08 05:27:10;;;;;;;1.17;0.60;;;;;;;;;;5420762;26;20000;-78
2024/04/08 05:29:36;;;;;;;0.75;0.75;;;;;;;;;;5427438;26;19999;-81
2024/04/08 05:32:03;;;;;;;0.52;0.52;;;;;;;;;;5430742;26;20308;-79
2024/04/08 05:34:29;;;;;;;2.38;0.70;;;;;;;;;;5423306;26;19996;-78
2024/04/08 05:36:55;;;;;;;1.75;0.90;;;;;;;;;;5437871;26;19992;-79
2024/04/08 05:39:21;;;;;;;0.80;0.70;;;;;;;;;;5422588;26;20497;-80
2024/04/08 05:41:48;;;;;;;1.23;0.80;;;;;;;;;;5407827;26;20004;-80
2024/04/08 05:44:14;;;;;;;1.45;0.80;;;;;;;;;;5417693;26;20007;-79
2024/04/08 05:46:41;;;;;;;1.50;0.75;;;;;;;;;;5403909;26;20008;-79
2024/04/08 05:49:07;;;;;;;0.88;0.80;;;;;;;;;;5411434;26;19996;-80
2024/04/08 05:51:34;;;;;;;2.72;1.33;;;;;;;;;;5417012;26;20028;-80
2024/04/08 05:54:00;;;;;;;1.23;0.90;;;;;;;;;;5435280;26;20115;-81
2024/04/08 05:56:26;;;;;;;1.20;1.10;;;;;;;;;;5392968;26;20032;-78
2024/04/08 05:58:53;;;;;;;1.00;0.68;;;;;;;;;;5422071;26;20002;-79
2024/04/08 06:01:19;;;;;;;0.80;0.57;;;;;;;;;;5408530;26;20015;-79
2024/04/08 06:03:45;;;;;;;0.45;0.45;;;;;;;;;;5417806;26;20003;-79
2024/04/08 06:06:18;;;;;;;0.65;0.60;;;;;;;;;;5402003;26;19999;-76
2024/04/08 06:08:44;;;;;;;0.50;0.50;;;;;;;;;;5407046;26;20103;-76
2024/04/08 06:11:10;;;;;;;1.30;0.65;;;;;;;;;;5407309;26;20035;-75
2024/04/08 06:13:36;;;;;;;0.35;0.35;;;;;;;;;;5421237;26;20006;-76
2024/04/08 06:16:03;;;;;;;0.50;0.50;;;;;;;;;;5394537;26;20011;-78
2024/04/08 06:18:29;;;;;;;0.30;0.30;;;;;;;;;;5389869;26;19999;-79
2024/04/08 06:20:56;;;;;;;0.43;0.40;;;;;;;;;;5403541;26;20000;-79
2024/04/08 06:23:23;;;;;;;0.57;0.40;;;;;;;;;;5400339;26;20089;-79
2024/04/08 06:25:59;;;;;;;1.00;0.50;;;;;;;;;;5394322;26;20309;-78
2024/04/08 06:28:25;;;;;;;0.43;0.43;;;;;;;;;;5404385;26;20130;-78
2024/04/08 06:30:51;;;;;;;0.30;0.30;;;;;;;;;;5392360;26;19996;-78
2024/04/08 06:33:17;;;;;;;0.40;0.40;;;;;;;;;;5400090;26;19996;-78
2024/04/08 06:35:44;;;;;;;0.50;0.50;;;;;;;;;;5404779;26;20001;-79
2024/04/08 06:38:13;;;;;;;0.60;0.60;;;;;;;;;;5409711;26;20003;-76
2024/04/08 06:40:39;;;;;;;0.70;0.60;;;;;;;;;;5396636;26;20007;-77
2024/04/08 06:43:06;;;;;;;1.35;0.65;;;;;;;;;;5383325;26;20011;-78
2024/04/08 06:45:32;;;;;;;0.60;0.60;;;;;;;;;;5406963;26;19999;-79
2024/04/08 06:47:58;;;;;;;1.25;0.73;;;;;;;;;;5411092;26;20028;-78
2024/04/08 06:50:25;;;;;;;0.60;0.60;;;;;;;;;;5391288;26;20093;-79
2024/04/08 06:52:51;;;;;;;0.80;0.70;;;;;;;;;;5386392;26;20019;-79
2024/04/08 06:55:18;;;;;;;1.35;0.80;;;;;;;;;;5411838;26;19995;-79
2024/04/08 06:57:44;;;;;;;0.63;0.63;;;;;;;;;;5400488;26;19996;-79
2024/04/08 07:00:11;;;;;;;0.60;0.60;;;;;;;;;;5401458;26;20069;-79
2024/04/08 07:02:37;;;;;;;0.52;0.52;;;;;;;;;;5405052;26;20435;-79
2024/04/08 07:05:06;;;;;;;0.40;0.40;;;;;;;;;;5418350;26;20010;-76
2024/04/08 07:07:33;;;;;;;1.05;0.75;;;;;;;;;;5415061;26;20115;-75
2024/04/08 07:09:59;;;;;;;0.93;0.82;;;;;;;;;;5393503;26;20069;-76
2024/04/08 07:12:26;;;;;;;2.03;0.90;;;;;;;;;;5396389;26;20000;-77
2024/04/08 07:14:55;;;;;;;0.70;0.63;;;;;;;;;;5403029;26;20015;-79
2024/04/08 07:17:21;;;;;;;2.10;1.30;;;;;;;;;;5401282;26;19989;-78
2024/04/08 07:19:48;;;;;;;0.77;0.77;;;;;;;;;;5403927;26;19996;-79
2024/04/08 07:22:14;;;;;;;1.10;1.00;;;;;;;;;;5419804;26;20000;-79
2024/04/08 07:24:40;;;;;;;1.75;1.15;;;;;;;;;;5394066;26;20004;-79
2024/04/08 07:27:07;;;;;;;1.98;1.45;;;;;;;;;;5411759;26;19992;-78
2024/04/08 07:29:33;;;;;;;3.72;1.60;;;;;;;;;;5415342;26;19995;-78
2024/04/08 07:32:00;;;;;;;1.77;1.20;;;;;;;;;;5409730;26;20052;-78
2024/04/08 07:34:27;;;;;;;1.30;1.20;;;;;;;;;;5407730;26;19999;-79
2024/04/08 07:36:53;;;;;;;0.80;0.75;;;;;;;;;;5410039;26;20449;-78
2024/04/08 07:39:19;;;;;;;1.38;1.00;;;;;;;;;;5414546;26;20011;-78
2024/04/08 07:41:45;;;;;;;1.50;1.25;;;;;;;;;;5413949;26;20001;-78
2024/04/08 07:44:12;;;;;;;0.95;0.82;;;;;;;;;;5410371;26;19995;-79
2024/04/08 07:46:38;;;;;;;1.73;1.20;;;;;;;;;;5417650;26;20000;-79
2024/04/08 07:49:04;;;;;;;2.35;1.10;;;;;;;;;;5387989;26;20008;-77
2024/04/08 07:51:30;;;;;;;1.13;1.00;;;;;;;;;;5394284;26;20003;-77
2024/04/08 07:53:56;;;;;;;1.67;1.02;;;;;;;;;;5391431;26;20004;-77
2024/04/08 07:56:23;;;;;;;1.00;0.90;;;;;;;;;;5391976;26;20312;-77
2024/04/08 07:58:51;;;;;;;0.73;0.57;;;;;;;;;;5390399;26;20063;-79
2024/04/08 08:01:17;;;;;;;1.73;1.30;;;;;;;;;;5393918;26;20000;-76
2024/04/08 08:03:44;;;;;;;5.75;1.90;;;;;;;;;;5412314;26;19999;-78
2024/04/08 08:06:10;;;;;;;2.38;1.10;;;;;;;;;;5394766;26;20701;-79
2024/04/08 08:08:36;;;;;;;2.75;1.27;;;;;;;;;;5407046;26;19992;-78
2024/04/08 08:11:04;;;;;;;1.92;1.20;;;;;;;;;;5397426;26;20000;-77
2024/04/08 08:13:30;;;;;;;1.30;0.95;;;;;;;;;;5420981;26;20364;-78
2024/04/08 08:15:57;;;;;;;1.10;1.00;;;;;;;;;;5401833;26;19996;-77
2024/04/08 08:18:23;;;;;;;0.82;0.82;;;;;;;;;;5388533;26;20000;-77
2024/04/08 08:20:50;;;;;;;0.93;0.90;;;;;;;;;;5389889;26;20411;-78
2024/04/08 08:23:16;;;;;;;1.00;0.80;;;;;;;;;;5391273;26;20458;-78
2024/04/08 08:25:43;;;;;;;1.10;0.75;;;;;;;;;;5421432;26;20040;-78
2024/04/08 08:28:09;;;;;;;1.50;0.98;;;;;;;;;;5423768;26;20018;-78
2024/04/08 08:30:36;;;;;;;0.68;0.68;;;;;;;;;;5405697;26;20003;-77
2024/04/08 08:33:02;;;;;;;1.20;1.10;;;;;;;;;;5403630;26;20015;-77
2024/04/08 08:35:30;;;;;;;1.20;0.90;;;;;;;;;;5409420;26;20015;-77
2024/04/08 08:37:57;;;;;;;1.58;1.35;;;;;;;;;;5408060;26;20005;-77
2024/04/08 08:40:26;;;;;;;1.50;1.40;;;;;;;;;;5401268;26;20000;-77
2024/04/08 08:42:53;;;;;;;1.95;1.30;;;;;;;;;;5407707;26;20006;-78
2024/04/08 08:45:19;;;;;;;3.08;1.23;;;;;;;;;;5417952;26;19991;-78
2024/04/08 08:47:45;;;;;;;2.80;1.05;;;;;;;;;;5399201;26;20000;-79
2024/04/08 08:50:11;;;;;;;9.07;2.20;;;;;;;;;;5403381;26;20018;-77
2024/04/08 08:52:38;;;;;;;6.20;2.42;;;;;;;;;;5417116;26;20003;-78
2024/04/08 08:55:05;;;;;;;5.13;1.58;;;;;;;;;;5408357;26;20006;-77
2024/04/08 08:57:31;;;;;;;5.50;2.28;;;;;;;;;;5392277;26;20013;-76
2024/04/08 09:00:05;;;;;;;5.22;1.88;;;;;;;;;;5397650;26;20007;-77
2024/04/08 09:02:32;;;;;;;3.63;1.60;;;;;;;;;;5392459;26;20012;-77
2024/04/08 09:04:58;;;;;;;2.03;1.45;;;;;;;;;;5416320;26;20004;-77
2024/04/08 09:07:24;;;;;;;2.85;1.63;;;;;;;;;;5409124;26;20000;-77
2024/04/08 09:09:56;;;;;;;1.65;1.23;;;;;;;;;;5417049;26;20007;-77
2024/04/08 09:12:23;;;;;;;8.38;2.42;;;;;;;;;;5409952;26;20373;-77
2024/04/08 09:14:50;;;;;;;8.68;2.20;;;;;;;;;;5393109;26;20331;-78
2024/04/08 09:17:16;;;;;;;6.45;2.45;;;;;;;;;;5398648;26;20000;-77
2024/04/08 09:19:42;;;;;;;13.13;3.88;;;;;;;;;;5396990;26;20018;-78
2024/04/08 09:22:09;;;;;;;10.98;3.63;;;;;;;;;;5410759;26;20011;-78
2024/04/08 09:24:35;;;;;;;7.10;2.78;;;;;;;;;;5390603;26;20010;-76
2024/04/08 09:27:02;;;;;;;7.57;2.80;;;;;;;;;;5392376;26;20004;-77
2024/04/08 09:29:28;;;;;;;6.88;2.72;;;;;;;;;;5394469;26;20000;-76
2024/04/08 09:31:54;;;;;;;11.77;3.00;;;;;;;;;;5396118;26;20008;-78
2024/04/08 09:34:20;;;;;;;10.82;3.08;;;;;;;;;;5405796;26;20071;-78
2024/04/08 09:36:47;;;;;;;9.15;2.80;;;;;;;;;;5393274;26;19995;-78
2024/04/08 09:39:13;;;;;;;15.27;3.53;;;;;;;;;;5419601;26;20092;-78
2024/04/08 09:41:40;;;;;;;10.35;3.00;;;;;;;;;;5389090;26;20008;-77
2024/04/08 09:44:09;;;;;;;7.53;2.95;;;;;;;;;;5391042;26;20000;-77
2024/04/08 09:46:36;;;;;;;4.90;2.45;;;;;;;;;;5398038;26;20014;-78
2024/04/08 09:49:04;;;;;;;6.75;2.53;;;;;;;;;;5395083;26;20012;-77
2024/04/08 09:51:34;;;;;;;4.47;2.10;;;;;;;;;;5405701;26;20034;-77
2024/04/08 09:54:00;;;;;;;4.70;1.90;;;;;;;;;;5406769;26;20003;-77
2024/04/08 09:56:30;;;;;;;3.80;1.50;;;;;;;;;;5417014;26;19999;-77
2024/04/08 09:59:02;;;;;;;6.57;1.83;;;;;;;;;;5400397;26;20000;-78
2024/04/08 10:01:29;;;;;;;6.95;2.45;;;;;;;;;;5398751;26;20430;-82
2024/04/08 10:03:57;;;;;;;8.98;2.83;;;;;;;;;;5450934;26;20011;-79
2024/04/08 10:06:23;;;;;;;9.05;3.13;;;;;;;;;;5396341;26;20011;-79
2024/04/08 10:08:50;;;;;;;9.68;3.55;;;;;;;;;;5419781;26;19999;-80
2024/04/08 10:11:17;;;;;;;7.53;2.75;;;;;;;;;;5403876;26;20000;-79
2024/04/08 10:13:49;;;;;;;3.50;2.08;;;;;;;;;;5422983;26;20094;-78
2024/04/08 10:16:16;;;;;;;7.93;2.42;;;;;;;;;;5401422;26;20003;-76
2024/04/08 10:18:51;;;;;;;6.72;2.40;;;;;;;;;;5403929;26;20000;-78
2024/04/08 10:21:19;;;;;;;5.32;2.58;;;;;;;;;;5409268;26;20027;-76
2024/04/08 10:23:54;;;;;;;8.32;2.50;;;;;;;;;;5427753;26;20050;-78
2024/04/08 10:26:24;;;;;;;5.50;3.25;;;;;;;;;;5411616;26;20050;-76
2024/04/08 10:28:51;;;;;;;5.45;2.97;;;;;;;;;;5410445;26;20011;-75
2024/04/08 10:31:20;;;;;;;4.63;2.60;;;;;;;;;;5433037;26;20004;-76
2024/04/08 10:33:46;;;;;;;6.65;2.92;;;;;;;;;;5415889;26;20007;-78
2024/04/08 10:36:12;;;;;;;7.35;2.88;;;;;;;;;;5404519;26;20100;-78
2024/04/08 10:38:38;;;;;;;5.28;2.33;;;;;;;;;;5398361;26;20000;-78
2024/04/08 10:41:08;;;;;;;7.10;2.85;;;;;;;;;;5388721;26;20004;-78
2024/04/08 10:43:35;;;;;;;8.20;2.75;;;;;;;;;;5394016;26;20000;-78
2024/04/08 10:46:04;;;;;;;5.10;2.45;;;;;;;;;;5407150;26;20027;-79
2024/04/08 10:48:31;;;;;;;17.02;4.90;;;;;;;;;;5399619;26;19992;-78
2024/04/08 10:50:57;;;;;;;7.00;2.53;;;;;;;;;;5389315;26;20007;-77
2024/04/08 10:53:26;;;;;;;13.18;5.00;;;;;;;;;;5391460;26;20000;-78
2024/04/08 10:55:52;;;;;;;10.88;3.50;;;;;;;;;;5394888;26;20000;-79
2024/04/08 10:58:18;;;;;;;7.72;3.00;;;;;;;;;;5398048;26;20054;-79
2024/04/08 11:00:45;;;;;;;10.98;3.08;;;;;;;;;;5413078;26;20026;-79
2024/04/08 11:03:12;;;;;;;9.52;3.30;;;;;;;;;;5413491;26;20032;-79
2024/04/08 11:05:39;;;;;;;8.65;3.90;;;;;;;;;;5410835;26;20011;-79
2024/04/08 11:08:06;;;;;;;16.80;4.40;;;;;;;;;;5402737;26;20034;-77
2024/04/08 11:10:32;;;;;;;15.45;4.18;;;;;;;;;;5413840;26;20007;-77
2024/04/08 11:12:59;;;;;;;12.13;3.53;;;;;;;;;;5406156;26;20007;-78
2024/04/08 11:15:28;;;;;;;16.33;4.35;;;;;;;;;;5419898;26;19996;-78
2024/04/08 11:17:58;;;;;;;26.80;6.68;;;;;;;;;;5386444;26;20003;-78
2024/04/08 11:20:27;;;;;;;22.23;5.43;;;;;;;;;;5387926;26;20008;-78
2024/04/08 11:22:54;;;;;;;16.15;4.57;;;;;;;;;;5403970;26;20004;-79
2024/04/08 11:25:20;;;;;;;16.20;5.35;;;;;;;;;;5417518;26;19999;-77
2024/04/08 11:27:46;;;;;;;13.55;4.50;;;;;;;;;;5393359;26;19996;-79
2024/04/08 11:30:16;;;;;;;19.35;5.53;;;;;;;;;;5396272;26;20470;-79
2024/04/08 11:32:42;;;;;;;12.57;3.97;;;;;;;;;;5420023;26;19999;-78
2024/04/08 11:35:09;;;;;;;10.30;3.83;;;;;;;;;;5419254;26;20014;-78
2024/04/08 11:37:35;;;;;;;8.32;3.20;;;;;;;;;;5392034;26;19996;-79
2024/04/08 11:40:04;;;;;;;19.15;5.30;;;;;;;;;;5395248;26;20007;-78
2024/04/08 11:42:31;;;;;;;17.20;5.53;;;;;;;;;;5404178;26;20100;-77
2024/04/08 11:45:02;;;;;;;19.05;4.90;;;;;;;;;;5387977;26;20001;-81
2024/04/08 11:47:28;;;;;;;16.65;5.15;;;;;;;;;;5400485;26;20006;-80
2024/04/08 11:49:55;;;;;;;16.63;4.80;;;;;;;;;;5388788;26;20048;-79
2024/04/08 11:52:22;;;;;;;20.95;6.45;;;;;;;;;;5388714;26;20014;-76
2024/04/08 11:54:48;;;;;;;17.85;4.90;;;;;;;;;;5415163;26;20004;-77
2024/04/08 11:57:15;;;;;;;15.07;4.32;;;;;;;;;;5423996;26;20404;-76
2024/04/08 11:59:42;;;;;;;17.98;5.40;;;;;;;;;;5412874;26;19992;-79
2024/04/08 12:02:09;;;;;;;21.58;5.25;;;;;;;;;;5408098;26;20023;-78
2024/04/08 12:04:35;;;;;;;21.85;6.15;;;;;;;;;;5461722;26;19995;-77
2024/04/08 12:07:04;;;;;;;17.38;4.55;;;;;;;;;;5400362;26;20004;-77
2024/04/08 12:09:30;;;;;;;26.75;6.40;;;;;;;;;;5395102;26;20019;-80
2024/04/08 12:11:57;;;;;;;29.63;6.63;;;;;;;;;;5393263;26;20705;-80
2024/04/08 12:14:24;;;;;;;21.70;5.18;;;;;;;;;;5402980;26;20000;-80
2024/04/08 12:16:50;;;;;;;18.73;4.80;;;;;;;;;;5389290;26;20066;-79
2024/04/08 12:19:16;;;;;;;21.67;5.80;;;;;;;;;;5419526;26;20098;-79
2024/04/08 12:21:43;;;;;;;37.83;7.25;;;;;;;;;;5412005;26;20015;-79
2024/04/08 12:24:09;;;;;;;21.70;5.78;;;;;;;;;;5395921;26;20000;-79
2024/04/08 12:26:35;;;;;;;19.05;5.68;;;;;;;;;;5391245;26;20077;-78
2024/04/08 12:29:03;;;;;;;23.00;5.40;;;;;;;;;;5395598;26;20003;-78
2024/04/08 12:31:29;;;;;;;14.23;4.20;;;;;;;;;;5418008;26;19996;-79
2024/04/08 12:33:55;;;;;;;18.75;5.45;;;;;;;;;;5453967;26;20000;-77
2024/04/08 12:36:22;;;;;;;15.20;4.28;;;;;;;;;;5397987;26;19992;-78
2024/04/08 12:38:49;;;;;;;14.00;4.32;;;;;;;;;;5408609;26;20450;-78
2024/04/08 12:41:15;;;;;;;8.65;3.30;;;;;;;;;;5416755;26;20077;-77
2024/04/08 12:43:44;;;;;;;16.02;4.60;;;;;;;;;;5395386;26;20424;-80
2024/04/08 12:46:31;;;;;;;13.77;4.50;;;;;;;;;;5392763;26;20004;-78
2024/04/08 12:48:56;;;;;;;13.27;5.18;;;;;;;;;;5407423;26;20011;-75
2024/04/08 12:51:23;;;;;;;15.20;5.18;;;;;;;;;;5432584;26;19996;-78
2024/04/08 12:53:49;;;;;;;11.45;4.13;;;;;;;;;;5433620;26;20014;-79
2024/04/08 12:56:15;;;;;;;14.98;4.45;;;;;;;;;;5436498;26;20041;-77
2024/04/08 12:58:41;;;;;;;12.38;4.20;;;;;;;;;;5428931;26;20407;-77
2024/04/08 13:01:08;;;;;;;17.02;5.15;;;;;;;;;;5416477;26;20007;-78
2024/04/08 13:04:13;;;;;;;22.30;5.13;;;;;;;;;;5427723;26;19991;-83
2024/04/08 13:06:40;;;;;;;20.02;5.38;;;;;;;;;;5394362;26;20020;-77
2024/04/08 13:09:08;;;;;;;11.20;4.13;;;;;;;;;;5432107;26;20000;-79
2024/04/08 13:11:34;;;;;;;13.57;4.72;;;;;;;;;;5410456;26;20050;-80
2024/04/08 13:14:04;;;;;;;11.40;3.88;;;;;;;;;;5427796;26;20004;-79
2024/04/08 13:16:30;;;;;;;12.10;4.95;;;;;;;;;;5419085;26;19996;-79
2024/04/08 13:18:56;;;;;;;12.35;3.60;;;;;;;;;;5406479;26;19996;-77
2024/04/08 13:21:26;;;;;;;8.80;3.40;;;;;;;;;;5404999;26;20023;-78
2024/04/08 13:23:52;;;;;;;10.57;3.78;;;;;;;;;;5415776;26;20793;-78
2024/04/08 13:26:19;;;;;;;24.25;6.05;;;;;;;;;;5383440;26;20000;-77
2024/04/08 13:28:45;;;;;;;22.98;7.05;;;;;;;;;;5400724;21;20038;-76
2024/04/08 13:31:15;;;;;;;15.07;5.53;;;;;;;;;;5382127;26;20070;-77
2024/04/08 13:33:43;;;;;;;16.98;5.43;;;;;;;;;;5378044;26;20032;-78
2024/04/08 13:36:10;;;;;;;24.90;6.10;;;;;;;;;;5384919;26;20010;-75
2024/04/08 13:38:37;;;;;;;26.02;6.63;;;;;;;;;;5379340;26;20011;-77
2024/04/08 13:41:04;;;;;;;26.33;6.60;;;;;;;;;;5381870;26;19996;-76
2024/04/08 13:43:30;;;;;;;25.20;6.47;;;;;;;;;;5381557;26;20004;-76
2024/04/08 13:45:56;;;;;;;15.20;5.40;;;;;;;;;;5381738;26;19996;-76
2024/04/08 13:48:23;;;;;;;14.38;5.40;;;;;;;;;;5373028;26;20001;-77
2024/04/08 13:50:49;;;;;;;10.23;5.15;;;;;;;;;;5369502;26;20002;-77
2024/04/08 13:53:15;;;;;;;18.27;5.72;;;;;;;;;;5380261;26;20008;-78
2024/04/08 13:55:54;;;;;;;23.42;5.55;;;;;;;;;;5373366;26;20005;-78
2024/04/08 13:58:20;;;;;;;14.10;5.53;;;;;;;;;;5391461;26;19984;-77
2024/04/08 14:00:47;;;;;;;14.07;5.13;;;;;;;;;;5375956;26;20001;-77
2024/04/08 14:03:14;;;;;;;11.02;4.18;;;;;;;;;;5385191;26;20008;-78
2024/04/08 14:05:40;;;;;;;26.20;6.28;;;;;;;;;;5383675;26;20399;-76
2024/04/08 14:08:06;;;;;;;32.80;7.47;;;;;;;;;;5382808;26;19996;-76
2024/04/08 14:10:32;;;;;;;30.08;6.65;;;;;;;;;;5383072;26;20006;-77
2024/04/08 14:12:59;;;;;;;26.95;7.32;;;;;;;;;;5368849;26;20001;-77
2024/04/08 14:15:25;;;;;;;30.73;6.95;;;;;;;;;;5372531;26;20411;-77
2024/04/08 14:17:51;;;;;;;18.02;5.43;;;;;;;;;;5387155;26;20111;-77
2024/04/08 14:20:18;;;;;;;12.25;4.47;;;;;;;;;;5391952;26;20486;-76
2024/04/08 14:22:44;;;;;;;26.10;6.70;;;;;;;;;;5393844;26;20007;-77
2024/04/08 14:25:10;;;;;;;38.78;7.57;;;;;;;;;;5389333;26;20320;-77
2024/04/08 14:27:36;;;;;;;22.75;5.68;;;;;;;;;;5384786;26;20010;-77
2024/04/08 14:30:03;;;;;;;22.08;6.45;;;;;;;;;;5382027;26;20000;-77
2024/04/08 14:32:29;;;;;;;16.73;4.93;;;;;;;;;;5380980;26;20085;-77
2024/04/08 14:34:55;;;;;;;29.50;6.22;;;;;;;;;;5376444;26;20007;-77
2024/04/08 14:37:22;;;;;;;27.38;6.90;;;;;;;;;;5368555;26;20017;-77